Airport Name : Slayton Muni

Other Name : Slayton Muni

ICAO : KDVP

IATA :

FAA : DVP

Latitude : 43.986792

Longitude : -95.782611

Country : United States

Local Date and Time : 12 Aug 2020 15:08

 

TAF (Terminal Aerodrome Forecast)

 

METAR (METeorological Aerodrome Report)

KDVP 121953Z AUTO 14012KT 10SM CLR 25/20 A2997 RMK AO2 T02520197

KDVP 121933Z AUTO 13013G20KT 10SM SCT028 SCT035 25/19 A2997 RMK AO2 T02450192

KDVP 121913Z AUTO 13011KT 10SM SCT021 SCT028 SCT037 24/18 A2998 RMK AO2 T02380183

KDVP 121853Z AUTO 12014G19KT 10SM SCT008 SCT011 BKN025 23/18 A2999 RMK AO2 T02260177

KDVP 121833Z AUTO 11012G18KT 10SM SCT008 BKN011 OVC031 22/17 A2999 RMK AO2 T02200173

KDVP 121813Z AUTO 11014KT 10SM BKN008 OVC020 22/17 A3000 RMK AO2 T02160172

KDVP 121753Z AUTO 11015KT 10SM BKN008 OVC015 22/17 A3000 RMK AO2 T02150169 10243 20180

KDVP 121733Z AUTO 09012G16KT 10SM SCT008 OVC015 22/17 A3000 RMK AO2 T02180173

KDVP 121713Z AUTO 10015KT 10SM SCT009 OVC015 22/18 A3000 RMK AO2 T02220176

KDVP 121653Z AUTO 09011G16KT 10SM OVC013 22/17 A3000 RMK AO2 T02180170

KDVP 121633Z AUTO 12010KT 7SM OVC011 24/19 A2999 RMK AO2 LTG DSNT E T02390190

KDVP 121613Z AUTO 09009KT 10SM BKN009 OVC014 22/18 A2999 RMK AO2 LTG DSNT NE T02170177

To Charter a Jet Click here.